createdAt,value
2019-05-15T00:01:40.984Z,645.73
2019-05-15T00:04:09.469Z,512.27
2019-05-15T00:06:39.511Z,489.47
2019-05-15T00:09:09.100Z,459.90
2019-05-15T00:11:38.988Z,447.10
2019-05-15T00:14:08.784Z,390.87
2019-05-15T00:16:40.084Z,336.10
2019-05-15T00:19:11.017Z,392.23
2019-05-15T00:21:40.075Z,261.73
2019-05-15T00:24:13.072Z,227.97
2019-05-15T00:26:40.350Z,243.57
2019-05-15T00:29:15.854Z,183.97
2019-05-15T00:31:41.968Z,128.20
2019-05-15T00:34:12.722Z,131.20
2019-05-15T00:36:41.761Z,134.50
2019-05-15T00:39:11.491Z,124.73
2019-05-15T00:41:50.849Z,138.53
2019-05-15T00:44:11.187Z,199.77
2019-05-15T00:46:41.045Z,194.87
2019-05-15T00:49:10.461Z,169.40
2019-05-15T00:51:39.570Z,236.30
2019-05-15T00:54:08.650Z,236.03
2019-05-15T00:56:39.103Z,254.50
2019-05-15T00:59:08.454Z,209.67
2019-05-15T01:01:38.211Z,208.30
2019-05-15T01:04:08.894Z,156.87
2019-05-15T01:06:39.041Z,144.13
2019-05-15T01:09:08.468Z,109.97
2019-05-15T01:11:38.212Z,90.00
2019-05-15T01:14:11.934Z,65.50
2019-05-15T01:16:39.622Z,65.00
2019-05-15T01:19:09.536Z,57.47
2019-05-15T01:21:39.144Z,91.13
2019-05-15T01:24:08.476Z,67.90
2019-05-15T01:26:39.207Z,45.53
2019-05-15T01:29:09.121Z,54.00
2019-05-15T01:31:38.219Z,60.80
2019-05-15T01:34:08.965Z,64.57
2019-05-15T01:36:38.366Z,62.50
2019-05-15T01:39:08.087Z,57.33
2019-05-15T01:41:38.615Z,66.83
2019-05-15T01:44:08.801Z,67.57
2019-05-15T01:46:39.262Z,41.77
2019-05-15T01:49:10.570Z,53.07
2019-05-15T01:51:40.094Z,48.67
2019-05-15T01:54:09.227Z,47.27
2019-05-15T01:56:38.702Z,30.07
2019-05-15T01:59:08.633Z,42.73
2019-05-15T02:01:39.237Z,28.70
2019-05-15T02:04:09.056Z,23.60
2019-05-15T02:06:39.097Z,36.67
2019-05-15T02:09:08.484Z,31.70
2019-05-15T02:11:38.662Z,30.93
2019-05-15T02:14:09.372Z,23.47
2019-05-15T02:16:39.362Z,30.27
2019-05-15T02:19:09.010Z,32.87
2019-05-15T02:21:38.170Z,30.47
2019-05-15T02:24:07.937Z,30.03
2019-05-15T02:26:38.876Z,21.00
2019-05-15T02:29:08.360Z,22.10
2019-05-15T02:31:39.192Z,14.70
2019-05-15T02:34:10.291Z,16.03
2019-05-15T02:36:40.105Z,14.27
2019-05-15T02:39:09.475Z,12.57
2019-05-15T02:41:39.694Z,10.57
2019-05-15T02:44:10.896Z,15.20
2019-05-15T02:46:40.985Z,12.57
2019-05-15T02:49:10.029Z,9.23
2019-05-15T02:51:39.982Z,12.80
2019-05-15T02:54:10.251Z,7.33
2019-05-15T02:56:39.838Z,8.40
2019-05-15T02:59:09.805Z,11.77
2019-05-15T03:01:40.424Z,8.20
2019-05-15T03:04:09.567Z,7.03
2019-05-15T03:06:39.091Z,6.60
2019-05-15T03:09:09.564Z,4.93
2019-05-15T03:11:40.952Z,6.67
2019-05-15T03:14:09.526Z,6.00
2019-05-15T03:16:39.627Z,8.07
2019-05-15T03:19:09.918Z,3.97
2019-05-15T03:21:39.263Z,5.07
2019-05-15T03:24:10.241Z,7.83
2019-05-15T03:26:39.579Z,8.37
2019-05-15T03:29:09.769Z,8.20
2019-05-15T03:31:57.662Z,11.37
2019-05-15T03:34:20.586Z,4.53
2019-05-15T03:36:45.313Z,9.47
2019-05-15T03:39:12.434Z,9.40
2019-05-15T03:41:41.441Z,15.20
2019-05-15T03:44:10.506Z,9.27
2019-05-15T03:46:40.018Z,11.60
2019-05-15T03:49:09.304Z,14.33
2019-05-15T03:51:41.017Z,18.57
2019-05-15T03:54:09.461Z,13.20
2019-05-15T03:56:39.544Z,17.03
2019-05-15T03:59:09.565Z,24.30
2019-05-15T04:01:43.735Z,31.27
2019-05-15T04:04:11.004Z,57.57
2019-05-15T04:06:40.466Z,93.27
2019-05-15T04:09:09.983Z,193.97
2019-05-15T04:11:39.081Z,248.43
2019-05-15T04:14:10.132Z,509.87
2019-05-15T04:16:39.291Z,773.80
2019-05-15T04:19:09.773Z,999.90
2019-05-15T04:21:44.730Z,999.90
2019-05-15T04:24:10.931Z,999.90
2019-05-15T04:26:41.925Z,999.90
2019-05-15T04:29:11.865Z,983.67
2019-05-15T04:31:58.927Z,810.97
2019-05-15T04:34:12.442Z,750.47
2019-05-15T04:36:44.438Z,779.73
2019-05-15T04:39:12.129Z,784.23
2019-05-15T04:41:41.225Z,827.67
2019-05-15T04:44:10.666Z,848.00
2019-05-15T04:46:40.767Z,809.97
2019-05-15T04:49:09.903Z,800.77
2019-05-15T04:51:39.752Z,779.00
2019-05-15T04:54:09.714Z,801.67
2019-05-15T04:56:40.016Z,827.70
2019-05-15T04:59:10.159Z,843.60
2019-05-15T05:01:40.344Z,828.67
2019-05-15T05:04:09.688Z,831.47
2019-05-15T05:06:39.986Z,794.93
2019-05-15T05:09:09.505Z,806.93
2019-05-15T05:11:38.619Z,766.40
2019-05-15T05:14:08.628Z,731.23
2019-05-15T05:16:39.272Z,729.50
2019-05-15T05:19:09.094Z,752.03
2019-05-15T05:21:39.008Z,762.63
2019-05-15T05:24:08.218Z,729.47
2019-05-15T05:26:38.286Z,782.27
2019-05-15T05:29:08.697Z,765.60
2019-05-15T05:31:39.209Z,783.27
2019-05-15T05:34:08.528Z,783.27
2019-05-15T05:36:38.647Z,765.08
2019-05-15T05:39:09.618Z,753.52
2019-05-15T05:41:39.271Z,746.08
2019-05-15T05:44:08.650Z,773.58
2019-05-15T05:46:39.775Z,771.67
2019-05-15T05:49:08.480Z,723.40
2019-05-15T05:51:38.729Z,728.98
2019-05-15T05:54:08.394Z,738.37
2019-05-15T05:56:38.299Z,721.45
2019-05-15T05:59:09.390Z,721.87
2019-05-15T06:01:43.904Z,726.90
2019-05-15T06:04:10.701Z,730.13
2019-05-15T06:06:40.143Z,741.30
2019-05-15T06:09:09.514Z,730.60
2019-05-15T06:11:38.640Z,736.17
2019-05-15T06:14:08.814Z,743.02
2019-05-15T06:16:38.875Z,722.80
2019-05-15T06:19:08.516Z,738.92
2019-05-15T06:21:53.329Z,766.55
2019-05-15T06:24:13.148Z,759.10
2019-05-15T06:26:40.650Z,750.83
2019-05-15T06:29:10.607Z,752.58
2019-05-15T06:31:40.242Z,769.28
2019-05-15T06:34:10.256Z,747.00
2019-05-15T06:36:40.109Z,697.63
2019-05-15T06:39:09.782Z,725.58
2019-05-15T06:41:39.179Z,753.65
2019-05-15T06:44:08.216Z,745.48
2019-05-15T06:46:39.220Z,722.92
2019-05-15T06:49:11.511Z,700.00
2019-05-15T06:51:40.662Z,715.73
2019-05-15T06:54:09.720Z,710.35
2019-05-15T06:56:39.065Z,711.98
2019-05-15T06:59:08.958Z,737.80
2019-05-15T07:01:38.552Z,700.15
2019-05-15T07:04:08.418Z,696.48
2019-05-15T07:06:38.086Z,723.83
2019-05-15T07:09:09.516Z,688.63
2019-05-15T07:11:38.803Z,706.55
2019-05-15T07:14:08.902Z,691.92
2019-05-15T07:16:38.976Z,726.58
2019-05-15T07:19:08.474Z,717.58
2019-05-15T07:21:38.818Z,715.20
2019-05-15T07:24:09.355Z,820.37
2019-05-15T07:26:39.190Z,731.00
2019-05-15T07:29:33.431Z,738.33
2019-05-15T07:32:02.716Z,708.45
2019-05-15T07:34:32.708Z,712.95
2019-05-15T07:37:02.299Z,682.70
2019-05-15T07:39:31.344Z,728.50
2019-05-15T07:42:01.099Z,721.85
2019-05-15T07:44:30.134Z,695.08
2019-05-15T07:46:59.703Z,712.80
2019-05-15T07:49:28.971Z,726.27
2019-05-15T07:51:59.219Z,725.25
2019-05-15T07:54:29.306Z,871.12
2019-05-15T07:56:59.044Z,905.40
2019-05-15T07:59:28.708Z,830.65
2019-05-15T08:01:58.422Z,793.08
2019-05-15T08:04:30.601Z,774.85
2019-05-15T08:06:59.301Z,781.80
2019-05-15T08:09:29.311Z,769.40
2019-05-15T08:12:03.140Z,758.60
2019-05-15T08:14:30.494Z,769.53
2019-05-15T08:16:59.886Z,898.30
2019-05-15T08:19:29.036Z,892.43
2019-05-15T08:21:58.276Z,724.37
2019-05-15T08:24:29.752Z,790.80
2019-05-15T08:26:58.939Z,713.27
2019-05-15T08:29:28.818Z,729.30
2019-05-15T08:31:59.049Z,724.90
2019-05-15T08:34:28.321Z,720.23
2019-05-15T08:36:59.008Z,696.83
2019-05-15T08:39:28.654Z,672.13
2019-05-15T08:41:58.591Z,879.77
2019-05-15T08:44:29.300Z,720.27
2019-05-15T08:46:59.129Z,733.33
2019-05-15T08:49:28.438Z,763.13
2019-05-15T08:51:58.410Z,763.40
2019-05-15T08:54:29.045Z,785.07
2019-05-15T08:56:59.196Z,999.90
2019-05-15T08:59:29.625Z,727.40
2019-05-15T09:01:58.785Z,726.67
2019-05-15T09:04:34.445Z,892.35
2019-05-15T09:07:01.262Z,768.08
2019-05-15T09:09:30.506Z,947.02
2019-05-15T09:11:59.564Z,922.33
2019-05-15T09:14:28.675Z,999.90
2019-05-15T09:16:58.281Z,812.00
2019-05-15T09:19:28.156Z,773.52
2019-05-15T09:21:58.529Z,752.95
2019-05-15T09:24:28.650Z,761.20
2019-05-15T09:26:59.440Z,908.10
2019-05-15T09:29:28.631Z,711.62
2019-05-15T09:31:58.894Z,856.80
2019-05-15T09:34:38.062Z,721.12
2019-05-15T09:36:59.950Z,762.15
2019-05-15T09:39:29.133Z,903.80
2019-05-15T09:41:59.538Z,820.83
2019-05-15T09:44:28.563Z,752.37
2019-05-15T09:46:58.476Z,774.10
2019-05-15T09:49:29.905Z,728.52
2019-05-15T09:51:59.039Z,992.90
2019-05-15T09:54:28.963Z,984.58
2019-05-15T09:56:59.500Z,946.72
2019-05-15T09:59:28.559Z,777.60
2019-05-15T10:01:58.850Z,720.67
2019-05-15T10:04:28.687Z,756.80
2019-05-15T10:06:58.307Z,726.55
2019-05-15T10:09:28.528Z,797.65
2019-05-15T10:11:57.832Z,824.83
2019-05-15T10:14:29.439Z,747.83
2019-05-15T10:16:58.371Z,976.45
2019-05-15T10:19:29.051Z,771.10
2019-05-15T10:21:59.488Z,971.63
2019-05-15T10:24:29.319Z,859.07
2019-05-15T10:26:58.566Z,743.13
2019-05-15T10:29:28.184Z,739.37
2019-05-15T10:31:57.301Z,759.92
2019-05-15T10:34:28.750Z,801.50
2019-05-15T10:36:58.946Z,768.52
2019-05-15T10:39:28.823Z,739.67
2019-05-15T10:41:59.246Z,803.08
2019-05-15T10:44:28.650Z,747.42
2019-05-15T10:46:58.471Z,740.58
2019-05-15T10:49:28.187Z,725.40
2019-05-15T10:51:58.180Z,766.50
2019-05-15T10:54:29.154Z,751.27
2019-05-15T10:57:00.884Z,754.50
2019-05-15T10:59:29.715Z,826.22
2019-05-15T11:01:59.169Z,763.40
2019-05-15T11:04:28.987Z,703.10
2019-05-15T11:06:59.445Z,774.17
2019-05-15T11:09:28.892Z,716.88
2019-05-15T11:11:58.768Z,703.58
2019-05-15T11:14:28.646Z,731.35
2019-05-15T11:16:58.945Z,769.17
2019-05-15T11:19:35.656Z,809.85
2019-05-15T11:21:59.501Z,742.75
2019-05-15T11:24:32.207Z,718.85
2019-05-15T11:26:59.562Z,797.65
2019-05-15T11:29:28.666Z,819.13
2019-05-15T11:31:58.180Z,873.45
2019-05-15T11:34:29.061Z,773.47
2019-05-15T11:36:59.378Z,730.70
2019-05-15T11:39:28.887Z,774.08
2019-05-15T11:41:58.094Z,748.20
2019-05-15T11:44:28.325Z,864.65
2019-05-15T11:46:58.614Z,800.35
2019-05-15T11:49:29.229Z,759.98
2019-05-15T11:52:00.533Z,892.95
2019-05-15T11:54:30.653Z,716.25
2019-05-15T11:57:00.116Z,733.12
2019-05-15T11:59:30.093Z,805.83
2019-05-15T12:01:59.742Z,780.83
2019-05-15T12:04:33.707Z,948.35
2019-05-15T12:07:02.579Z,759.22
2019-05-15T12:09:32.344Z,779.45
2019-05-15T12:12:01.407Z,860.05
2019-05-15T12:14:31.031Z,700.20
2019-05-15T12:17:07.256Z,793.97
2019-05-15T12:19:30.857Z,917.37
2019-05-15T12:22:00.015Z,766.38
2019-05-15T12:24:35.365Z,722.60
2019-05-15T12:27:13.860Z,748.55
2019-05-15T12:29:31.185Z,737.88
2019-05-15T12:32:20.169Z,809.95
2019-05-15T12:34:31.100Z,737.17
2019-05-15T12:37:00.927Z,803.75
2019-05-15T12:39:30.567Z,869.77
2019-05-15T13:02:08.244Z,873.75
2019-05-15T13:04:38.916Z,731.50
2019-05-15T13:07:13.789Z,758.05
2019-05-15T13:09:38.247Z,732.25
2019-05-15T13:12:08.542Z,758.30
2019-05-15T13:14:38.898Z,765.88
2019-05-15T13:17:08.217Z,741.45
2019-05-15T13:19:38.783Z,739.17
2019-05-15T13:22:17.821Z,758.35
2019-05-15T13:24:38.888Z,761.20
2019-05-15T13:27:07.949Z,748.67
2019-05-15T13:29:37.027Z,718.90
2019-05-15T13:32:08.082Z,756.50
2019-05-15T13:34:38.934Z,726.25
2019-05-15T13:37:08.978Z,725.72
2019-05-15T13:39:39.213Z,728.00
2019-05-15T13:42:09.356Z,768.83
2019-05-15T13:44:38.739Z,807.65
2019-05-15T13:47:08.670Z,783.92
2019-05-15T13:49:38.663Z,811.92
2019-05-15T13:52:08.505Z,727.37
2019-05-15T13:54:38.040Z,740.17
2019-05-15T13:57:08.826Z,814.50
2019-05-15T13:59:39.326Z,795.73
2019-05-15T14:02:08.592Z,719.33
2019-05-15T14:04:38.850Z,730.05
2019-05-15T14:07:08.554Z,712.12
2019-05-15T14:09:44.277Z,747.17
2019-05-15T14:12:11.922Z,711.47
2019-05-15T14:14:39.032Z,720.70
2019-05-15T14:17:09.283Z,745.17
2019-05-15T14:19:38.679Z,713.52
2019-05-15T14:22:08.497Z,700.02
2019-05-15T14:24:38.422Z,719.10
2019-05-15T14:27:08.695Z,693.37
2019-05-15T14:29:37.856Z,724.60
2019-05-15T14:32:08.177Z,687.80
2019-05-15T14:34:38.440Z,764.02
2019-05-15T14:37:08.813Z,859.28
2019-05-15T14:39:38.189Z,766.40
2019-05-15T14:42:09.085Z,742.87
2019-05-15T14:44:38.908Z,756.20
2019-05-15T14:47:08.970Z,796.63
2019-05-15T14:49:44.269Z,740.00
2019-05-15T14:52:09.537Z,710.02
2019-05-15T14:54:38.685Z,707.80
2019-05-15T14:57:08.733Z,716.00
2019-05-15T14:59:38.345Z,695.70
2019-05-15T15:02:09.049Z,839.80
2019-05-15T15:04:39.300Z,743.33
2019-05-15T15:07:08.861Z,740.28
2019-05-15T15:09:37.912Z,745.92
2019-05-15T15:12:08.143Z,754.02
2019-05-15T15:14:37.924Z,763.27
2019-05-15T15:17:06.950Z,758.23
2019-05-15T15:19:38.707Z,797.93
2019-05-15T15:22:08.717Z,736.10
2019-05-15T15:24:38.998Z,728.07
2019-05-15T15:27:08.436Z,699.50
2019-05-15T15:29:38.915Z,716.17
2019-05-15T15:32:08.060Z,698.83
2019-05-15T15:34:38.747Z,723.70
2019-05-15T15:37:08.411Z,692.67
2019-05-15T15:39:38.671Z,667.87
2019-05-15T15:42:08.586Z,712.03
2019-05-15T15:44:38.104Z,757.77
2019-05-15T15:47:08.576Z,830.80
2019-05-15T15:49:38.752Z,834.07
2019-05-15T15:52:08.809Z,736.70
2019-05-15T15:54:39.472Z,704.23
2019-05-15T15:57:08.833Z,736.07
2019-05-15T15:59:38.576Z,749.53
2019-05-15T16:02:08.834Z,756.15
2019-05-15T16:04:39.206Z,729.60
2019-05-15T16:07:09.679Z,919.08
2019-05-15T16:09:39.232Z,733.90
2019-05-15T16:12:09.731Z,818.00
2019-05-15T16:14:39.146Z,769.42
2019-05-15T16:17:08.617Z,796.67
2019-05-15T16:19:38.859Z,697.90
2019-05-15T16:22:08.783Z,707.27
2019-05-15T16:24:38.578Z,675.43
2019-05-15T16:27:09.624Z,892.50
2019-05-15T16:29:39.383Z,791.20
2019-05-15T16:32:08.842Z,844.07
2019-05-15T16:34:39.275Z,723.87
2019-05-15T16:37:08.995Z,694.60
2019-05-15T16:39:38.354Z,768.70
2019-05-15T16:42:07.639Z,739.50
2019-05-15T16:44:38.365Z,758.17
2019-05-15T16:47:08.419Z,748.43
2019-05-15T16:49:39.094Z,801.40
2019-05-15T16:52:09.191Z,705.67
2019-05-15T16:54:38.522Z,725.23
2019-05-15T16:57:09.945Z,751.30
2019-05-15T16:59:39.378Z,791.13
2019-05-15T17:02:08.934Z,686.67
2019-05-15T17:04:38.286Z,742.20
2019-05-15T17:07:07.561Z,691.00
2019-05-15T17:09:38.313Z,728.50
2019-05-15T17:12:08.736Z,698.17
2019-05-15T17:14:38.870Z,715.57
2019-05-15T17:20:25.545Z,722.07
2019-05-15T17:22:54.609Z,910.60
2019-05-15T17:25:23.646Z,781.80
2019-05-15T17:27:52.707Z,678.03
2019-05-15T17:30:21.847Z,716.43
2019-05-15T17:32:51.267Z,708.77
2019-05-15T17:35:20.311Z,777.70
2019-05-15T17:37:49.374Z,672.07
2019-05-15T17:40:18.611Z,682.83
2019-05-15T17:42:49.180Z,728.60
2019-05-15T17:45:19.575Z,696.00
2019-05-15T17:47:49.193Z,744.97
2019-05-15T17:50:19.277Z,690.90
2019-05-15T17:52:49.121Z,722.83
2019-05-15T17:55:18.578Z,717.97
2019-05-15T17:57:54.607Z,737.33
2019-05-15T18:00:19.330Z,691.00
2019-05-15T18:02:48.769Z,713.23
2019-05-15T18:05:18.887Z,714.70
2019-05-15T18:07:48.822Z,671.73
2019-05-15T18:10:18.907Z,673.60
2019-05-15T18:12:48.785Z,707.53
2019-05-15T18:15:18.324Z,710.20
2019-05-15T18:17:48.143Z,692.63
2019-05-15T18:20:19.024Z,711.83
2019-05-15T18:22:49.556Z,686.13
2019-05-15T18:25:19.684Z,694.43
2019-05-15T18:27:48.797Z,717.90
2019-05-15T18:30:18.723Z,700.00
2019-05-15T18:32:48.858Z,696.90
2019-05-15T18:35:18.792Z,673.37
2019-05-15T18:37:48.999Z,656.57
2019-05-15T18:40:20.228Z,702.50
2019-05-15T18:42:49.767Z,699.20
2019-05-15T18:45:19.562Z,715.73
2019-05-15T18:47:48.647Z,710.83
2019-05-15T18:50:18.282Z,698.77
2019-05-15T18:52:48.802Z,681.30
2019-05-15T18:55:18.512Z,697.03
2019-05-15T18:57:48.727Z,670.80
2019-05-15T19:00:18.641Z,687.10
2019-05-15T19:02:48.494Z,688.03
2019-05-15T19:05:18.541Z,698.77
2019-05-15T19:07:48.684Z,652.93
2019-05-15T19:10:18.707Z,695.50
2019-05-15T19:12:48.513Z,669.63
2019-05-15T19:15:18.136Z,693.37
2019-05-15T19:17:47.851Z,714.13
2019-05-15T19:20:18.955Z,693.87
2019-05-15T19:22:48.404Z,699.23
2019-05-15T19:25:18.056Z,673.10
2019-05-15T19:27:47.423Z,702.37
2019-05-15T19:30:18.903Z,695.37
2019-05-15T19:32:49.072Z,690.23
2019-05-15T19:35:19.505Z,694.37
2019-05-15T19:37:49.038Z,671.90
2019-05-15T19:40:18.739Z,679.83
2019-05-15T19:42:48.801Z,696.80
2019-05-15T19:45:18.901Z,654.60
2019-05-15T19:47:48.775Z,678.20
2019-05-15T19:50:18.251Z,652.77
2019-05-15T19:52:48.369Z,673.27
2019-05-15T19:55:19.522Z,694.27
2019-05-15T19:57:48.485Z,670.67
2019-05-15T20:00:18.794Z,698.63
2019-05-15T20:02:48.585Z,670.00
2019-05-15T20:05:18.425Z,660.57
2019-05-15T20:07:48.937Z,680.13
2019-05-15T20:10:18.798Z,651.13
2019-05-15T20:12:48.071Z,692.30
2019-05-15T20:15:19.033Z,662.07
2019-05-15T20:17:48.264Z,674.93
2019-05-15T20:20:18.684Z,665.60
2019-05-15T20:22:48.138Z,705.50
2019-05-15T20:25:18.500Z,701.60
2019-05-15T20:27:48.176Z,672.47
2019-05-15T20:30:18.150Z,707.33
2019-05-15T20:32:48.097Z,677.17
2019-05-15T20:35:17.175Z,714.80
2019-05-15T20:37:48.460Z,706.53
2019-05-15T20:40:18.049Z,719.33
2019-05-15T20:42:48.408Z,698.73
2019-05-15T20:45:18.711Z,672.00
2019-05-15T20:47:48.072Z,688.27
2019-05-15T20:50:19.330Z,660.47
2019-05-15T20:52:48.775Z,654.53
2019-05-15T20:55:18.554Z,694.40
2019-05-15T20:57:50.407Z,676.03
2019-05-15T21:00:19.498Z,667.83
2019-05-15T21:02:48.843Z,656.07
2019-05-15T21:05:18.891Z,651.97
2019-05-15T21:07:48.574Z,650.17
2019-05-15T21:10:21.473Z,667.93
2019-05-15T21:12:49.593Z,685.57
2019-05-15T21:15:21.340Z,686.47
2019-05-15T21:17:57.681Z,688.90
2019-05-15T21:20:20.109Z,692.47
2019-05-15T21:22:49.472Z,650.20
2019-05-15T21:25:19.670Z,683.53
2019-05-15T21:27:49.655Z,702.10
2019-05-15T21:30:19.246Z,676.63
2019-05-15T21:32:49.218Z,665.17
2019-05-15T21:35:18.780Z,648.17
2019-05-15T21:37:48.975Z,640.17
2019-05-15T21:40:18.439Z,673.90
2019-05-15T21:42:49.272Z,636.93
2019-05-15T21:45:18.610Z,648.17
2019-05-15T21:47:47.676Z,646.23
2019-05-15T21:50:19.060Z,663.70
2019-05-15T21:52:49.377Z,670.13
2019-05-15T21:55:18.761Z,667.13
2019-05-15T21:57:47.899Z,709.03
2019-05-15T22:00:18.523Z,679.27
2019-05-15T22:02:49.621Z,684.73
2019-05-15T22:05:19.219Z,666.60
2019-05-15T22:07:51.174Z,655.90
2019-05-15T22:10:20.434Z,633.00
2019-05-15T22:12:49.652Z,623.50
2019-05-15T22:15:19.773Z,698.70
2019-05-15T22:17:49.554Z,724.37
2019-05-15T22:20:19.173Z,735.90
2019-05-15T22:22:50.797Z,693.93
2019-05-15T22:25:19.651Z,631.17
2019-05-15T22:27:49.277Z,684.73
2019-05-15T22:30:19.457Z,653.97
2019-05-15T22:32:49.502Z,653.87
2019-05-15T22:35:20.209Z,668.70
2019-05-15T22:37:49.561Z,634.40
2019-05-15T22:40:18.884Z,622.50
2019-05-15T22:42:48.872Z,676.60
2019-05-15T22:45:18.961Z,664.50
2019-05-15T22:47:48.463Z,625.40
2019-05-15T22:50:18.767Z,650.43
2019-05-15T22:52:49.225Z,619.53
2019-05-15T22:55:19.230Z,613.70
2019-05-15T22:57:48.975Z,640.53
2019-05-15T23:00:18.392Z,661.07
2019-05-15T23:02:48.797Z,665.37
2019-05-15T23:05:27.830Z,659.67
2019-05-15T23:07:48.845Z,648.43
2019-05-15T23:10:17.885Z,642.47
2019-05-15T23:12:48.674Z,657.37
2019-05-15T23:15:18.928Z,622.30
2019-05-15T23:17:48.713Z,684.30
2019-05-15T23:20:19.044Z,660.30
2019-05-15T23:22:49.864Z,682.63
2019-05-15T23:25:19.086Z,690.90
2019-05-15T23:27:48.490Z,665.47
2019-05-15T23:30:18.575Z,680.90
2019-05-15T23:32:48.755Z,682.77
2019-05-15T23:35:18.276Z,645.63
2019-05-15T23:37:48.588Z,643.40
2019-05-15T23:40:18.106Z,667.27
2019-05-15T23:42:49.047Z,673.70
2019-05-15T23:45:18.389Z,674.80
2019-05-15T23:47:48.593Z,671.20
2019-05-15T23:50:19.287Z,669.50
2019-05-15T23:52:49.425Z,708.07
2019-05-15T23:55:19.067Z,670.43
2019-05-15T23:57:48.796Z,656.57
